Crystal Falls, MI (49920)

4:28 PM CDT on June 25, 2017 (GMT -0500)
Bates Tower | | Change Station
Active Advisory: Special Statement

Elev 1765 ft 46.10 °N, 88.54 °W | Updated 8 minutes ago

Overcast
Overcast
54.6 °F
Feels Like 54.6 °F
N
5.0
Wind Variable Wind from WSW
Gusts 12.0 mph

Today
High -- | Low -- °F
--% Chance of Precip.
Yesterday
High -- | Low -- °F
Precip. -- in
Pressure 29.95 in
Visibility 10.0 miles
Clouds Few 5500 ft
Mostly Cloudy 7000 ft
Mostly Cloudy 9000 ft
Dew Point 50 °F
Humidity 84%
Rainfall 0.00 in
Snow Depth Not available.
5:03 AM 8:48 PM
Waxing Crescent, 5% visible
SPECI KIMT 252115Z AUTO 06008KT 10SM TS FEW055 BKN070 BKN090 18/07 A2995 RMK AO2 LTG DSNT SE AND SW AND NW TSB09 T01780072
Pressure 29.95 in
Visibility 10.0 miles
Clouds Few 5500 ft
Mostly Cloudy 7000 ft
Mostly Cloudy 9000 ft
Dew Point 50 °F
Humidity 84%
Rainfall 0.00 in
Snow Depth Not available.
5:03 AM 8:48 PM
Waxing Crescent, 5% visible
SPECI KIMT 252115Z AUTO 06008KT 10SM TS FEW055 BKN070 BKN090 18/07 A2995 RMK AO2 LTG DSNT SE AND SW AND NW TSB09 T01780072

Get Your Daily Forecast Email!

Thanks for signing up!

Be on the lookout for a verification email in your inbox.

You'll start receiving severe weather alerts in your inbox..

×

10-Day Weather Forecast

Almanac

Astronomy

Jun. 25, 2017 Rise Set
Actual Time
Civil Twilight
Nautical Twilight
Astronomical Twilight
Moon
Length of Visible Light
Length of Day
Tomorrow will be .
, % of the Moon is Illuminated

Today's Extremes

State Highs State Lows

Community

WunderPhotos

Category 6

Welcome to Category 6. This is the collective home for Weather Underground's featured writeups by Dr. Jeff Masters (right), Bob Henson (left), Chris Burt, and other regular contributors.

Nearby

Air Quality

  Air Quality AQ Index Pollutant
Not available.

Snow Depth

Station Depth Elevation

Earthquake Activity

City Distance Mag. Time & Date
Minimum magnitude displayed is 2.5.

Coastal Water Temperatures

Place Temperature

Stations

Nearby Weather Stations

Station Location Temp. Windchill Dew Point Humidity Wind Precip. Elev Updated Type
                   

Watches & Warnings

Special Statement
Issued: 1:04 PM CDT Jun. 25, 2017 – National Weather Service

... Small hail and heavy downpours expected into this evening...

Showers and thunderstorms developing across central and western
portions of the Upper Peninsula this afternoon into early this
evening will have the potential to produce small hail and very
heavy downpours.

The heavy downpours, falling on saturated soils from the rain
that fell Saturday afternoon and Saturday night, may lead to
minor localized flooding and ponding of water on highways through
this evening.


Kec